sensor_id;sensor_type;location;lat;lon;timestamp;temperature;humidity
21184;DHT22;18176;49.502;11.754;2022-12-07T00:02:40;1.70;99.90
21184;DHT22;18176;49.502;11.754;2022-12-07T00:06:42;1.60;99.90
21184;DHT22;18176;49.502;11.754;2022-12-07T00:10:44;1.60;99.90
21184;DHT22;18176;49.502;11.754;2022-12-07T00:14:46;1.60;99.90
21184;DHT22;18176;49.502;11.754;2022-12-07T00:18:47;1.50;99.90
21184;DHT22;18176;49.502;11.754;2022-12-07T00:22:47;1.40;99.90
21184;DHT22;18176;49.502;11.754;2022-12-07T00:26:48;1.30;99.90
21184;DHT22;18176;49.502;11.754;2022-12-07T00:30:51;1.20;99.90
21184;DHT22;18176;49.502;11.754;2022-12-07T00:34:51;1.20;99.90
21184;DHT22;18176;49.502;11.754;2022-12-07T00:38:52;1.20;99.90
21184;DHT22;18176;49.502;11.754;2022-12-07T00:42:52;1.20;99.90
21184;DHT22;18176;49.502;11.754;2022-12-07T00:46:55;1.20;99.90
21184;DHT22;18176;49.502;11.754;2022-12-07T00:50:55;1.20;99.90
21184;DHT22;18176;49.502;11.754;2022-12-07T00:54:55;1.10;99.90
21184;DHT22;18176;49.502;11.754;2022-12-07T00:58:56;0.90;99.90
21184;DHT22;18176;49.502;11.754;2022-12-07T01:03:00;0.80;99.90
21184;DHT22;18176;49.502;11.754;2022-12-07T01:07:00;0.80;99.90
21184;DHT22;18176;49.502;11.754;2022-12-07T01:11:02;0.80;99.90
21184;DHT22;18176;49.502;11.754;2022-12-07T01:15:05;0.80;99.90
21184;DHT22;18176;49.502;11.754;2022-12-07T01:19:11;0.80;99.90
21184;DHT22;18176;49.502;11.754;2022-12-07T01:23:11;0.90;99.90
21184;DHT22;18176;49.502;11.754;2022-12-07T01:27:12;1.00;99.90
21184;DHT22;18176;49.502;11.754;2022-12-07T01:31:13;1.10;99.90
21184;DHT22;18176;49.502;11.754;2022-12-07T01:35:18;1.10;99.90
21184;DHT22;18176;49.502;11.754;2022-12-07T01:39:18;1.10;99.90
21184;DHT22;18176;49.502;11.754;2022-12-07T01:43:19;1.20;99.90
21184;DHT22;18176;49.502;11.754;2022-12-07T01:47:20;1.20;99.90
21184;DHT22;18176;49.502;11.754;2022-12-07T01:51:22;1.20;99.90
21184;DHT22;18176;49.502;11.754;2022-12-07T01:55:23;1.30;99.90
21184;DHT22;18176;49.502;11.754;2022-12-07T01:59:25;1.30;99.90
21184;DHT22;18176;49.502;11.754;2022-12-07T02:03:29;1.30;99.90
21184;DHT22;18176;49.502;11.754;2022-12-07T02:07:37;1.30;99.90
21184;DHT22;18176;49.502;11.754;2022-12-07T02:11:40;1.30;99.90
21184;DHT22;18176;49.502;11.754;2022-12-07T02:16:03;1.30;99.90
21184;DHT22;18176;49.502;11.754;2022-12-07T02:20:21;1.30;99.90
21184;DHT22;18176;49.502;11.754;2022-12-07T02:24:48;1.40;99.90
21184;DHT22;18176;49.502;11.754;2022-12-07T02:29:17;1.40;99.90
21184;DHT22;18176;49.502;11.754;2022-12-07T02:33:25;1.40;99.90
21184;DHT22;18176;49.502;11.754;2022-12-07T02:37:35;1.40;99.90
21184;DHT22;18176;49.502;11.754;2022-12-07T02:41:44;1.30;99.90
21184;DHT22;18176;49.502;11.754;2022-12-07T02:45:51;1.30;99.90
21184;DHT22;18176;49.502;11.754;2022-12-07T02:49:52;1.30;99.90
21184;DHT22;18176;49.502;11.754;2022-12-07T02:53:52;1.30;99.90
21184;DHT22;18176;49.502;11.754;2022-12-07T02:58:20;1.30;99.90
21184;DHT22;18176;49.502;11.754;2022-12-07T03:02:39;1.30;99.90
21184;DHT22;18176;49.502;11.754;2022-12-07T03:06:55;1.30;99.90
21184;DHT22;18176;49.502;11.754;2022-12-07T03:11:03;1.40;99.90
21184;DHT22;18176;49.502;11.754;2022-12-07T03:15:12;1.40;99.90
21184;DHT22;18176;49.502;11.754;2022-12-07T03:19:21;1.40;99.90
21184;DHT22;18176;49.502;11.754;2022-12-07T03:23:26;1.40;99.90
21184;DHT22;18176;49.502;11.754;2022-12-07T03:27:32;1.40;99.90
21184;DHT22;18176;49.502;11.754;2022-12-07T03:31:37;1.40;99.90
21184;DHT22;18176;49.502;11.754;2022-12-07T03:35:47;1.40;99.90
21184;DHT22;18176;49.502;11.754;2022-12-07T03:39:57;1.40;99.90
21184;DHT22;18176;49.502;11.754;2022-12-07T03:44:01;1.30;99.90
21184;DHT22;18176;49.502;11.754;2022-12-07T03:48:08;1.30;99.90
21184;DHT22;18176;49.502;11.754;2022-12-07T03:52:24;1.30;99.90
21184;DHT22;18176;49.502;11.754;2022-12-07T03:56:30;1.20;99.90
21184;DHT22;18176;49.502;11.754;2022-12-07T04:00:32;1.10;99.90
21184;DHT22;18176;49.502;11.754;2022-12-07T04:04:33;1.10;99.90
21184;DHT22;18176;49.502;11.754;2022-12-07T04:08:37;1.10;99.90
21184;DHT22;18176;49.502;11.754;2022-12-07T04:12:37;1.00;99.90
21184;DHT22;18176;49.502;11.754;2022-12-07T04:16:37;0.90;99.90
21184;DHT22;18176;49.502;11.754;2022-12-07T04:20:40;0.70;99.90
21184;DHT22;18176;49.502;11.754;2022-12-07T04:24:43;0.70;99.90
21184;DHT22;18176;49.502;11.754;2022-12-07T04:28:43;0.60;99.90
21184;DHT22;18176;49.502;11.754;2022-12-07T04:32:43;0.50;99.90
21184;DHT22;18176;49.502;11.754;2022-12-07T04:36:45;0.40;99.90
21184;DHT22;18176;49.502;11.754;2022-12-07T04:40:49;0.30;99.90
21184;DHT22;18176;49.502;11.754;2022-12-07T04:44:49;0.20;99.90
21184;DHT22;18176;49.502;11.754;2022-12-07T04:48:49;0.10;99.90
21184;DHT22;18176;49.502;11.754;2022-12-07T04:52:50;0.10;99.90
21184;DHT22;18176;49.502;11.754;2022-12-07T04:56:52;0.10;99.90
21184;DHT22;18176;49.502;11.754;2022-12-07T05:00:54;0.30;99.90
21184;DHT22;18176;49.502;11.754;2022-12-07T05:04:55;0.30;99.90
21184;DHT22;18176;49.502;11.754;2022-12-07T05:08:55;0.30;99.90
21184;DHT22;18176;49.502;11.754;2022-12-07T05:12:58;0.40;99.90
21184;DHT22;18176;49.502;11.754;2022-12-07T05:16:58;0.40;99.90
21184;DHT22;18176;49.502;11.754;2022-12-07T05:20:58;0.50;99.90
21184;DHT22;18176;49.502;11.754;2022-12-07T05:24:58;0.60;99.90
21184;DHT22;18176;49.502;11.754;2022-12-07T05:29:01;0.70;99.90
21184;DHT22;18176;49.502;11.754;2022-12-07T05:33:01;0.80;99.90
21184;DHT22;18176;49.502;11.754;2022-12-07T05:37:02;0.80;99.90
21184;DHT22;18176;49.502;11.754;2022-12-07T05:41:03;0.70;99.90
21184;DHT22;18176;49.502;11.754;2022-12-07T05:45:27;0.80;99.90
21184;DHT22;18176;49.502;11.754;2022-12-07T05:49:27;0.90;99.90
21184;DHT22;18176;49.502;11.754;2022-12-07T05:53:28;0.80;99.90
21184;DHT22;18176;49.502;11.754;2022-12-07T05:57:28;0.80;99.90
21184;DHT22;18176;49.502;11.754;2022-12-07T06:01:30;1.00;99.90
21184;DHT22;18176;49.502;11.754;2022-12-07T06:05:31;1.00;99.90
21184;DHT22;18176;49.502;11.754;2022-12-07T06:09:31;1.00;99.90
21184;DHT22;18176;49.502;11.754;2022-12-07T06:13:33;1.00;99.90
21184;DHT22;18176;49.502;11.754;2022-12-07T06:17:41;1.10;99.90
21184;DHT22;18176;49.502;11.754;2022-12-07T06:21:41;1.10;99.90
21184;DHT22;18176;49.502;11.754;2022-12-07T06:25:45;1.10;99.90
21184;DHT22;18176;49.502;11.754;2022-12-07T06:29:45;1.10;99.90
21184;DHT22;18176;49.502;11.754;2022-12-07T06:33:48;1.00;99.90
21184;DHT22;18176;49.502;11.754;2022-12-07T06:37:48;1.10;99.90
21184;DHT22;18176;49.502;11.754;2022-12-07T06:41:50;1.10;99.90
21184;DHT22;18176;49.502;11.754;2022-12-07T06:45:51;1.10;99.90
21184;DHT22;18176;49.502;11.754;2022-12-07T06:49:54;1.10;99.90
21184;DHT22;18176;49.502;11.754;2022-12-07T06:53:55;1.20;99.90
21184;DHT22;18176;49.502;11.754;2022-12-07T06:57:56;1.20;99.90
21184;DHT22;18176;49.502;11.754;2022-12-07T07:01:56;1.20;99.90
21184;DHT22;18176;49.502;11.754;2022-12-07T07:05:59;1.30;99.90
21184;DHT22;18176;49.502;11.754;2022-12-07T07:09:59;1.40;99.90
21184;DHT22;18176;49.502;11.754;2022-12-07T07:13:59;1.30;99.90
21184;DHT22;18176;49.502;11.754;2022-12-07T07:18:10;1.30;99.90
21184;DHT22;18176;49.502;11.754;2022-12-07T07:22:35;1.30;99.90
21184;DHT22;18176;49.502;11.754;2022-12-07T07:26:48;1.20;99.90
21184;DHT22;18176;49.502;11.754;2022-12-07T07:31:29;1.20;99.90
21184;DHT22;18176;49.502;11.754;2022-12-07T07:35:33;1.30;99.90
21184;DHT22;18176;49.502;11.754;2022-12-07T07:39:36;1.30;99.90
21184;DHT22;18176;49.502;11.754;2022-12-07T07:43:36;1.30;99.90
21184;DHT22;18176;49.502;11.754;2022-12-07T07:47:36;1.30;99.90
21184;DHT22;18176;49.502;11.754;2022-12-07T07:51:37;1.30;99.90
21184;DHT22;18176;49.502;11.754;2022-12-07T07:55:40;1.40;99.90
21184;DHT22;18176;49.502;11.754;2022-12-07T07:59:44;1.30;99.90
21184;DHT22;18176;49.502;11.754;2022-12-07T08:04:43;1.30;99.90
21184;DHT22;18176;49.502;11.754;2022-12-07T08:09:26;1.40;99.90
21184;DHT22;18176;49.502;11.754;2022-12-07T08:14:25;1.40;99.90
21184;DHT22;18176;49.502;11.754;2022-12-07T08:18:57;1.60;99.90
21184;DHT22;18176;49.502;11.754;2022-12-07T08:23:09;1.60;99.90
21184;DHT22;18176;49.502;11.754;2022-12-07T08:27:39;1.60;99.90
21184;DHT22;18176;49.502;11.754;2022-12-07T08:32:12;1.70;99.90
21184;DHT22;18176;49.502;11.754;2022-12-07T08:36:29;1.70;99.90
21184;DHT22;18176;49.502;11.754;2022-12-07T08:40:57;1.60;99.90
21184;DHT22;18176;49.502;11.754;2022-12-07T08:44:58;1.70;99.90
21184;DHT22;18176;49.502;11.754;2022-12-07T08:49:11;1.70;99.90
21184;DHT22;18176;49.502;11.754;2022-12-07T08:58:35;1.70;99.90
21184;DHT22;18176;49.502;11.754;2022-12-07T09:08:36;1.70;99.90
21184;DHT22;18176;49.502;11.754;2022-12-07T09:13:33;1.70;99.90
21184;DHT22;18176;49.502;11.754;2022-12-07T09:17:56;1.80;99.90
21184;DHT22;18176;49.502;11.754;2022-12-07T09:22:47;2.00;99.90
21184;DHT22;18176;49.502;11.754;2022-12-07T09:27:40;2.10;99.90
21184;DHT22;18176;49.502;11.754;2022-12-07T09:32:35;2.00;99.90
21184;DHT22;18176;49.502;11.754;2022-12-07T09:37:29;2.10;99.90
21184;DHT22;18176;49.502;11.754;2022-12-07T09:41:52;2.10;99.90
21184;DHT22;18176;49.502;11.754;2022-12-07T09:46:40;2.10;99.90
21184;DHT22;18176;49.502;11.754;2022-12-07T09:51:32;2.30;99.90
21184;DHT22;18176;49.502;11.754;2022-12-07T09:55:51;2.40;99.90
21184;DHT22;18176;49.502;11.754;2022-12-07T10:00:26;2.40;99.90
21184;DHT22;18176;49.502;11.754;2022-12-07T10:05:13;2.60;99.90
21184;DHT22;18176;49.502;11.754;2022-12-07T10:09:44;2.50;99.90
21184;DHT22;18176;49.502;11.754;2022-12-07T10:14:20;2.40;99.90
21184;DHT22;18176;49.502;11.754;2022-12-07T10:24:31;2.40;99.90
21184;DHT22;18176;49.502;11.754;2022-12-07T10:28:48;2.30;99.90
21184;DHT22;18176;49.502;11.754;2022-12-07T10:33:10;2.20;99.90
21184;DHT22;18176;49.502;11.754;2022-12-07T10:38:29;2.10;99.90
21184;DHT22;18176;49.502;11.754;2022-12-07T10:48:16;2.00;99.90
21184;DHT22;18176;49.502;11.754;2022-12-07T10:52:44;2.10;99.90
21184;DHT22;18176;49.502;11.754;2022-12-07T10:57:26;2.20;99.90
21184;DHT22;18176;49.502;11.754;2022-12-07T11:01:44;2.20;99.90
21184;DHT22;18176;49.502;11.754;2022-12-07T11:06:21;2.20;99.90
21184;DHT22;18176;49.502;11.754;2022-12-07T11:11:39;2.20;99.90
21184;DHT22;18176;49.502;11.754;2022-12-07T11:16:52;2.30;99.90
21184;DHT22;18176;49.502;11.754;2022-12-07T11:21:27;2.20;99.90
21184;DHT22;18176;49.502;11.754;2022-12-07T11:26:29;2.10;99.90
21184;DHT22;18176;49.502;11.754;2022-12-07T11:31:24;2.20;99.90
21184;DHT22;18176;49.502;11.754;2022-12-07T11:36:00;2.20;99.90
21184;DHT22;18176;49.502;11.754;2022-12-07T11:40:24;2.10;99.90
21184;DHT22;18176;49.502;11.754;2022-12-07T11:45:17;2.30;99.90
21184;DHT22;18176;49.502;11.754;2022-12-07T11:49:41;2.30;99.90
21184;DHT22;18176;49.502;11.754;2022-12-07T11:53:48;2.20;99.90
21184;DHT22;18176;49.502;11.754;2022-12-07T11:58:00;2.20;99.90
21184;DHT22;18176;49.502;11.754;2022-12-07T12:02:13;2.20;99.90
21184;DHT22;18176;49.502;11.754;2022-12-07T12:06:15;2.20;99.90
21184;DHT22;18176;49.502;11.754;2022-12-07T12:10:18;2.30;99.90
21184;DHT22;18176;49.502;11.754;2022-12-07T12:14:47;2.30;99.90
21184;DHT22;18176;49.502;11.754;2022-12-07T12:19:22;2.40;99.90
21184;DHT22;18176;49.502;11.754;2022-12-07T12:23:38;2.30;99.90
21184;DHT22;18176;49.502;11.754;2022-12-07T12:27:46;2.40;99.90
21184;DHT22;18176;49.502;11.754;2022-12-07T12:32:16;2.40;99.90
21184;DHT22;18176;49.502;11.754;2022-12-07T12:36:27;2.30;99.90
21184;DHT22;18176;49.502;11.754;2022-12-07T12:40:44;2.30;99.90
21184;DHT22;18176;49.502;11.754;2022-12-07T12:45:18;2.40;99.90
21184;DHT22;18176;49.502;11.754;2022-12-07T12:54:23;2.40;99.90
21184;DHT22;18176;49.502;11.754;2022-12-07T12:58:42;2.40;99.90
21184;DHT22;18176;49.502;11.754;2022-12-07T13:02:52;2.40;99.90
21184;DHT22;18176;49.502;11.754;2022-12-07T13:06:59;2.40;99.90
21184;DHT22;18176;49.502;11.754;2022-12-07T13:11:36;2.40;99.90
21184;DHT22;18176;49.502;11.754;2022-12-07T13:20:49;2.40;99.90
21184;DHT22;18176;49.502;11.754;2022-12-07T13:25:38;2.50;99.90
21184;DHT22;18176;49.502;11.754;2022-12-07T13:52:30;2.50;99.90
21184;DHT22;18176;49.502;11.754;2022-12-07T13:57:03;2.60;99.90
21184;DHT22;18176;49.502;11.754;2022-12-07T14:01:13;2.70;99.90
21184;DHT22;18176;49.502;11.754;2022-12-07T14:05:15;2.60;99.90
21184;DHT22;18176;49.502;11.754;2022-12-07T14:09:27;2.60;99.90
21184;DHT22;18176;49.502;11.754;2022-12-07T14:13:31;2.40;99.90
21184;DHT22;18176;49.502;11.754;2022-12-07T14:17:36;2.30;99.90
21184;DHT22;18176;49.502;11.754;2022-12-07T14:22:06;2.30;99.90
21184;DHT22;18176;49.502;11.754;2022-12-07T14:26:12;2.30;99.90
21184;DHT22;18176;49.502;11.754;2022-12-07T14:30:32;2.20;99.90
21184;DHT22;18176;49.502;11.754;2022-12-07T14:34:34;2.20;99.90
21184;DHT22;18176;49.502;11.754;2022-12-07T14:38:48;2.20;99.90
21184;DHT22;18176;49.502;11.754;2022-12-07T14:43:35;2.20;99.90
21184;DHT22;18176;49.502;11.754;2022-12-07T14:48:15;2.10;99.90
21184;DHT22;18176;49.502;11.754;2022-12-07T14:52:44;2.00;99.90
21184;DHT22;18176;49.502;11.754;2022-12-07T15:03:03;2.00;99.90
21184;DHT22;18176;49.502;11.754;2022-12-07T15:07:23;2.00;99.90
21184;DHT22;18176;49.502;11.754;2022-12-07T15:11:31;2.00;99.90
21184;DHT22;18176;49.502;11.754;2022-12-07T15:15:37;1.90;99.90
21184;DHT22;18176;49.502;11.754;2022-12-07T15:24:23;1.90;99.90
21184;DHT22;18176;49.502;11.754;2022-12-07T15:28:23;1.90;99.90
21184;DHT22;18176;49.502;11.754;2022-12-07T15:32:23;1.90;99.90
21184;DHT22;18176;49.502;11.754;2022-12-07T15:36:26;1.80;99.90
21184;DHT22;18176;49.502;11.754;2022-12-07T15:40:30;1.90;99.90
21184;DHT22;18176;49.502;11.754;2022-12-07T15:44:31;1.90;99.90
21184;DHT22;18176;49.502;11.754;2022-12-07T15:48:45;1.90;99.90
21184;DHT22;18176;49.502;11.754;2022-12-07T15:52:46;1.90;99.90
21184;DHT22;18176;49.502;11.754;2022-12-07T15:56:49;1.90;99.90
21184;DHT22;18176;49.502;11.754;2022-12-07T16:00:49;1.80;99.90
21184;DHT22;18176;49.502;11.754;2022-12-07T16:04:49;1.60;99.90
21184;DHT22;18176;49.502;11.754;2022-12-07T16:08:50;1.50;99.90
21184;DHT22;18176;49.502;11.754;2022-12-07T16:12:53;1.30;99.90
21184;DHT22;18176;49.502;11.754;2022-12-07T16:16:53;1.30;99.90
21184;DHT22;18176;49.502;11.754;2022-12-07T16:20:53;1.20;99.90
21184;DHT22;18176;49.502;11.754;2022-12-07T16:24:53;1.10;99.90
21184;DHT22;18176;49.502;11.754;2022-12-07T16:28:56;1.10;99.90
21184;DHT22;18176;49.502;11.754;2022-12-07T16:32:57;1.20;99.90
21184;DHT22;18176;49.502;11.754;2022-12-07T16:36:58;1.30;99.90
21184;DHT22;18176;49.502;11.754;2022-12-07T16:41:01;1.20;99.90
21184;DHT22;18176;49.502;11.754;2022-12-07T16:45:05;1.20;99.90
21184;DHT22;18176;49.502;11.754;2022-12-07T16:49:06;1.30;99.90
21184;DHT22;18176;49.502;11.754;2022-12-07T16:53:06;1.30;99.90
21184;DHT22;18176;49.502;11.754;2022-12-07T16:57:06;1.40;99.90
21184;DHT22;18176;49.502;11.754;2022-12-07T17:01:14;1.50;99.90
21184;DHT22;18176;49.502;11.754;2022-12-07T17:05:16;1.50;99.90
21184;DHT22;18176;49.502;11.754;2022-12-07T17:09:16;1.60;99.90
21184;DHT22;18176;49.502;11.754;2022-12-07T17:13:17;1.60;99.90
21184;DHT22;18176;49.502;11.754;2022-12-07T17:17:35;1.70;99.90
21184;DHT22;18176;49.502;11.754;2022-12-07T17:21:35;1.70;99.90
21184;DHT22;18176;49.502;11.754;2022-12-07T17:25:36;1.70;99.90
21184;DHT22;18176;49.502;11.754;2022-12-07T17:29:36;1.70;99.90
21184;DHT22;18176;49.502;11.754;2022-12-07T17:33:39;1.60;99.90
21184;DHT22;18176;49.502;11.754;2022-12-07T17:37:39;1.50;99.90
21184;DHT22;18176;49.502;11.754;2022-12-07T17:41:46;1.40;99.90
21184;DHT22;18176;49.502;11.754;2022-12-07T17:46:04;1.50;99.90
21184;DHT22;18176;49.502;11.754;2022-12-07T17:50:09;1.50;99.90
21184;DHT22;18176;49.502;11.754;2022-12-07T17:54:10;1.60;99.90
21184;DHT22;18176;49.502;11.754;2022-12-07T17:58:11;1.60;99.90
21184;DHT22;18176;49.502;11.754;2022-12-07T18:02:11;1.70;99.90
21184;DHT22;18176;49.502;11.754;2022-12-07T18:06:14;1.70;99.90
21184;DHT22;18176;49.502;11.754;2022-12-07T18:10:14;1.80;99.90
21184;DHT22;18176;49.502;11.754;2022-12-07T18:14:14;1.80;99.90
21184;DHT22;18176;49.502;11.754;2022-12-07T18:18:15;1.70;99.90
21184;DHT22;18176;49.502;11.754;2022-12-07T18:22:18;1.70;99.90
21184;DHT22;18176;49.502;11.754;2022-12-07T18:26:19;1.70;99.90
21184;DHT22;18176;49.502;11.754;2022-12-07T18:30:20;1.70;99.90
21184;DHT22;18176;49.502;11.754;2022-12-07T18:34:41;1.80;99.90
21184;DHT22;18176;49.502;11.754;2022-12-07T18:38:44;1.90;99.90
21184;DHT22;18176;49.502;11.754;2022-12-07T18:42:44;1.90;99.90
21184;DHT22;18176;49.502;11.754;2022-12-07T18:46:45;1.80;99.90
21184;DHT22;18176;49.502;11.754;2022-12-07T18:50:46;1.90;99.90
21184;DHT22;18176;49.502;11.754;2022-12-07T18:54:59;1.90;99.90
21184;DHT22;18176;49.502;11.754;2022-12-07T18:59:01;1.80;99.90
21184;DHT22;18176;49.502;11.754;2022-12-07T19:03:15;1.90;99.90
21184;DHT22;18176;49.502;11.754;2022-12-07T19:07:15;1.90;99.90
21184;DHT22;18176;49.502;11.754;2022-12-07T19:11:20;1.90;99.90
21184;DHT22;18176;49.502;11.754;2022-12-07T19:15:33;2.00;99.90
21184;DHT22;18176;49.502;11.754;2022-12-07T19:19:35;2.00;99.90
21184;DHT22;18176;49.502;11.754;2022-12-07T19:23:37;1.90;99.90
21184;DHT22;18176;49.502;11.754;2022-12-07T19:27:41;2.00;99.90
21184;DHT22;18176;49.502;11.754;2022-12-07T19:31:42;2.00;99.90
21184;DHT22;18176;49.502;11.754;2022-12-07T19:35:42;1.90;99.90
21184;DHT22;18176;49.502;11.754;2022-12-07T19:39:42;1.90;99.90
21184;DHT22;18176;49.502;11.754;2022-12-07T19:43:47;2.00;99.90
21184;DHT22;18176;49.502;11.754;2022-12-07T19:47:48;1.90;99.90
21184;DHT22;18176;49.502;11.754;2022-12-07T19:51:49;1.90;99.90
21184;DHT22;18176;49.502;11.754;2022-12-07T19:55:51;1.90;99.90
21184;DHT22;18176;49.502;11.754;2022-12-07T19:59:54;1.90;99.90
21184;DHT22;18176;49.502;11.754;2022-12-07T20:03:54;1.80;99.90
21184;DHT22;18176;49.502;11.754;2022-12-07T20:07:55;1.90;99.90
21184;DHT22;18176;49.502;11.754;2022-12-07T20:11:55;1.80;99.90
21184;DHT22;18176;49.502;11.754;2022-12-07T20:16:11;1.90;99.90
21184;DHT22;18176;49.502;11.754;2022-12-07T20:20:16;1.90;99.90
21184;DHT22;18176;49.502;11.754;2022-12-07T20:24:18;1.80;99.90
21184;DHT22;18176;49.502;11.754;2022-12-07T20:28:20;1.90;99.90
21184;DHT22;18176;49.502;11.754;2022-12-07T20:32:23;2.00;99.90
21184;DHT22;18176;49.502;11.754;2022-12-07T20:36:24;2.00;99.90
21184;DHT22;18176;49.502;11.754;2022-12-07T20:40:29;2.00;99.90
21184;DHT22;18176;49.502;11.754;2022-12-07T20:44:29;2.00;99.90
21184;DHT22;18176;49.502;11.754;2022-12-07T20:48:33;2.00;99.90
21184;DHT22;18176;49.502;11.754;2022-12-07T20:52:33;2.00;99.90
21184;DHT22;18176;49.502;11.754;2022-12-07T20:56:34;2.00;99.90
21184;DHT22;18176;49.502;11.754;2022-12-07T21:00:35;2.00;99.90
21184;DHT22;18176;49.502;11.754;2022-12-07T21:04:38;2.00;99.90
21184;DHT22;18176;49.502;11.754;2022-12-07T21:08:42;2.00;99.90
21184;DHT22;18176;49.502;11.754;2022-12-07T21:12:44;1.90;99.90
21184;DHT22;18176;49.502;11.754;2022-12-07T21:16:52;1.90;99.90
21184;DHT22;18176;49.502;11.754;2022-12-07T21:20:55;1.80;99.90
21184;DHT22;18176;49.502;11.754;2022-12-07T21:25:00;1.80;99.90
21184;DHT22;18176;49.502;11.754;2022-12-07T21:29:02;1.90;99.90
21184;DHT22;18176;49.502;11.754;2022-12-07T21:33:04;1.90;99.90
21184;DHT22;18176;49.502;11.754;2022-12-07T21:37:07;1.90;99.90
21184;DHT22;18176;49.502;11.754;2022-12-07T21:41:12;1.80;99.90
21184;DHT22;18176;49.502;11.754;2022-12-07T21:45:15;1.80;99.90
21184;DHT22;18176;49.502;11.754;2022-12-07T21:49:16;1.80;99.90
21184;DHT22;18176;49.502;11.754;2022-12-07T21:53:19;1.80;99.90
21184;DHT22;18176;49.502;11.754;2022-12-07T21:57:20;1.80;99.90
21184;DHT22;18176;49.502;11.754;2022-12-07T22:01:22;1.80;99.90
21184;DHT22;18176;49.502;11.754;2022-12-07T22:05:24;1.80;99.90
21184;DHT22;18176;49.502;11.754;2022-12-07T22:09:27;1.80;99.90
21184;DHT22;18176;49.502;11.754;2022-12-07T22:13:28;1.80;99.90
21184;DHT22;18176;49.502;11.754;2022-12-07T22:17:49;1.80;99.90
21184;DHT22;18176;49.502;11.754;2022-12-07T22:21:50;1.90;99.90
21184;DHT22;18176;49.502;11.754;2022-12-07T22:25:54;1.80;99.90
21184;DHT22;18176;49.502;11.754;2022-12-07T22:29:54;1.90;99.90
21184;DHT22;18176;49.502;11.754;2022-12-07T22:33:54;1.80;99.90
21184;DHT22;18176;49.502;11.754;2022-12-07T22:37:54;1.90;99.90
21184;DHT22;18176;49.502;11.754;2022-12-07T22:41:57;1.90;99.90
21184;DHT22;18176;49.502;11.754;2022-12-07T22:45:58;1.90;99.90
21184;DHT22;18176;49.502;11.754;2022-12-07T22:49:59;1.90;99.90
21184;DHT22;18176;49.502;11.754;2022-12-07T22:54:03;1.80;99.90
21184;DHT22;18176;49.502;11.754;2022-12-07T22:58:07;1.80;99.90
21184;DHT22;18176;49.502;11.754;2022-12-07T23:02:21;1.80;99.90
21184;DHT22;18176;49.502;11.754;2022-12-07T23:06:23;1.80;99.90
21184;DHT22;18176;49.502;11.754;2022-12-07T23:10:24;1.80;99.90
21184;DHT22;18176;49.502;11.754;2022-12-07T23:14:29;1.80;99.90
21184;DHT22;18176;49.502;11.754;2022-12-07T23:18:31;1.80;99.90
21184;DHT22;18176;49.502;11.754;2022-12-07T23:22:31;1.80;99.90
21184;DHT22;18176;49.502;11.754;2022-12-07T23:26:31;1.80;99.90
21184;DHT22;18176;49.502;11.754;2022-12-07T23:30:34;1.80;99.90
21184;DHT22;18176;49.502;11.754;2022-12-07T23:34:34;1.80;99.90
21184;DHT22;18176;49.502;11.754;2022-12-07T23:38:35;1.90;99.90
21184;DHT22;18176;49.502;11.754;2022-12-07T23:42:35;1.80;99.90
21184;DHT22;18176;49.502;11.754;2022-12-07T23:46:37;1.80;99.90
21184;DHT22;18176;49.502;11.754;2022-12-07T23:50:38;1.80;99.90
21184;DHT22;18176;49.502;11.754;2022-12-07T23:54:38;1.80;99.90
21184;DHT22;18176;49.502;11.754;2022-12-07T23:58:38;1.80;99.90
